createdAt,value
2018-08-09T00:00:15.532Z,26.90
2018-08-09T00:03:13.491Z,27.00
2018-08-09T00:05:41.501Z,27.00
2018-08-09T00:08:09.563Z,27.00
2018-08-09T00:10:37.540Z,26.90
2018-08-09T00:15:38.679Z,26.80
2018-08-09T00:18:06.662Z,26.70
2018-08-09T00:20:34.819Z,26.70
2018-08-09T00:23:02.762Z,26.60
2018-08-09T00:25:30.795Z,26.60
2018-08-09T00:27:58.767Z,26.60
2018-08-09T00:30:26.721Z,26.50
2018-08-09T00:32:54.703Z,26.60
2018-08-09T00:35:22.675Z,26.40
2018-08-09T00:37:50.644Z,26.40
2018-08-09T00:40:18.596Z,26.40
2018-08-09T00:42:46.526Z,26.30
2018-08-09T00:45:14.507Z,26.20
2018-08-09T00:47:42.452Z,26.00
2018-08-09T00:50:10.435Z,26.00
2018-08-09T00:52:38.380Z,26.00
2018-08-09T00:55:06.603Z,26.10
2018-08-09T00:57:34.554Z,26.20
2018-08-09T01:00:02.491Z,26.10
2018-08-09T01:02:30.620Z,26.00
2018-08-09T01:04:58.571Z,25.90
2018-08-09T01:07:26.524Z,25.80
2018-08-09T01:09:54.485Z,25.70
2018-08-09T01:12:22.455Z,25.70
2018-08-09T01:14:50.454Z,25.90
2018-08-09T01:17:18.425Z,25.80
2018-08-09T01:19:46.411Z,25.80
2018-08-09T01:22:14.363Z,26.00
2018-08-09T01:24:42.311Z,26.20
2018-08-09T01:27:10.281Z,26.40
2018-08-09T01:29:39.718Z,26.30
2018-08-09T01:32:07.703Z,26.40
2018-08-09T01:34:35.643Z,26.40
2018-08-09T01:37:03.644Z,26.50
2018-08-09T01:39:31.627Z,26.50
2018-08-09T01:42:11.226Z,26.50
2018-08-09T01:44:42.468Z,26.50
2018-08-09T01:47:10.479Z,26.50
2018-08-09T01:49:38.448Z,26.50
2018-08-09T01:52:06.492Z,26.60
2018-08-09T01:54:34.478Z,26.60
2018-08-09T01:57:02.447Z,26.60
2018-08-09T01:59:30.433Z,26.50
2018-08-09T02:01:58.388Z,26.30
2018-08-09T02:04:26.363Z,26.40
2018-08-09T02:06:54.325Z,26.40
2018-08-09T02:09:27.912Z,26.40
2018-08-09T02:11:55.892Z,26.30
2018-08-09T02:14:23.852Z,26.10
2018-08-09T02:16:51.911Z,26.00
2018-08-09T02:19:20.100Z,26.00
2018-08-09T02:21:48.081Z,25.90
2018-08-09T02:24:16.040Z,25.90
2018-08-09T02:26:44.012Z,25.80
2018-08-09T02:29:12.291Z,25.70
2018-08-09T02:31:40.315Z,25.70
2018-08-09T02:34:08.318Z,25.60
2018-08-09T02:36:36.509Z,25.70
2018-08-09T02:39:06.622Z,25.60
2018-08-09T02:44:09.318Z,25.80
2018-08-09T02:46:37.372Z,25.90
2018-08-09T02:49:05.291Z,25.90
2018-08-09T02:51:33.266Z,25.70
2018-08-09T02:54:01.272Z,25.60
2018-08-09T02:56:29.247Z,25.70
2018-08-09T02:58:57.430Z,25.50
2018-08-09T03:01:25.394Z,25.50
2018-08-09T03:03:53.357Z,25.60
2018-08-09T03:06:21.314Z,25.70
2018-08-09T03:08:49.277Z,25.70
2018-08-09T03:11:17.221Z,25.70
2018-08-09T03:13:45.203Z,25.60
2018-08-09T03:16:17.094Z,25.50
2018-08-09T03:18:45.162Z,25.30
2018-08-09T03:21:13.159Z,25.30
2018-08-09T03:23:41.132Z,25.30
2018-08-09T03:26:09.187Z,25.30
2018-08-09T03:28:37.487Z,25.20
2018-08-09T03:31:05.493Z,25.10
2018-08-09T03:33:33.464Z,25.10
2018-08-09T03:36:01.512Z,25.10
2018-08-09T03:38:29.482Z,25.20
2018-08-09T03:40:57.472Z,25.30
2018-08-09T03:43:25.437Z,25.20
2018-08-09T03:45:53.441Z,25.20
2018-08-09T03:48:21.752Z,25.20
2018-08-09T03:50:49.734Z,25.00
2018-08-09T03:53:17.708Z,24.70
2018-08-09T03:55:45.756Z,24.80
2018-08-09T03:58:13.746Z,25.00
2018-08-09T04:00:41.681Z,25.10
2018-08-09T04:03:09.886Z,25.00
2018-08-09T04:05:37.886Z,24.90
2018-08-09T04:08:05.892Z,24.80
2018-08-09T04:10:33.852Z,24.80
2018-08-09T04:13:01.832Z,24.70
2018-08-09T04:15:36.291Z,24.70
2018-08-09T04:18:04.264Z,24.90
2018-08-09T04:20:32.228Z,24.90
2018-08-09T04:23:00.234Z,24.80
2018-08-09T04:25:28.212Z,24.80
2018-08-09T04:27:56.431Z,24.90
2018-08-09T04:30:24.376Z,25.00
2018-08-09T04:32:52.330Z,25.00
2018-08-09T04:35:20.323Z,25.00
2018-08-09T04:37:48.293Z,25.00
2018-08-09T04:40:16.499Z,25.00
2018-08-09T04:42:44.461Z,25.10
2018-08-09T04:45:12.416Z,24.80
2018-08-09T04:47:40.399Z,24.90
2018-08-09T04:50:08.891Z,24.90
2018-08-09T04:52:36.835Z,25.00
2018-08-09T04:55:04.820Z,25.00
2018-08-09T04:57:32.788Z,25.00
2018-08-09T05:00:00.756Z,24.90
2018-08-09T05:02:28.901Z,24.90
2018-08-09T05:04:56.850Z,24.90
2018-08-09T05:07:25.077Z,25.00
2018-08-09T05:09:53.058Z,25.10
2018-08-09T05:12:21.027Z,24.90
2018-08-09T05:14:49.059Z,25.00
2018-08-09T05:17:17.029Z,25.00
2018-08-09T05:19:45.066Z,25.00
2018-08-09T05:22:13.030Z,25.10
2018-08-09T05:24:41.003Z,25.10
2018-08-09T05:27:08.995Z,25.00
2018-08-09T05:29:36.955Z,25.00
2018-08-09T05:32:05.300Z,25.10
2018-08-09T05:34:33.232Z,25.10
2018-08-09T05:37:01.279Z,24.90
2018-08-09T05:39:29.487Z,24.90
2018-08-09T05:41:57.468Z,25.00
2018-08-09T05:44:25.421Z,25.00
2018-08-09T05:46:53.644Z,25.00
2018-08-09T05:49:21.687Z,25.10
2018-08-09T05:51:49.632Z,25.10
2018-08-09T05:54:17.584Z,25.10
2018-08-09T05:56:45.656Z,25.10
2018-08-09T05:59:13.670Z,25.10
2018-08-09T06:01:41.752Z,25.00
2018-08-09T06:04:09.789Z,25.00
2018-08-09T06:06:37.966Z,25.10
2018-08-09T06:09:08.135Z,25.00
2018-08-09T06:11:36.126Z,25.10
2018-08-09T06:14:04.210Z,25.20
2018-08-09T06:16:32.294Z,25.30
2018-08-09T06:19:00.243Z,25.30
2018-08-09T06:21:28.198Z,25.20
2018-08-09T06:23:56.138Z,25.20
2018-08-09T06:26:24.569Z,25.20
2018-08-09T06:28:52.480Z,25.20
2018-08-09T06:31:20.483Z,25.20
2018-08-09T06:33:48.463Z,25.20
2018-08-09T06:36:16.416Z,25.20
2018-08-09T06:38:44.362Z,25.20
2018-08-09T06:41:12.660Z,25.20
2018-08-09T06:43:40.633Z,25.30
2018-08-09T06:46:08.587Z,25.30
2018-08-09T06:48:36.592Z,25.30
2018-08-09T06:51:04.611Z,25.40
2018-08-09T06:53:32.556Z,25.40
2018-08-09T06:56:00.594Z,25.50
2018-08-09T06:58:28.609Z,25.40
2018-08-09T07:00:56.551Z,25.40
2018-08-09T07:03:24.556Z,25.50
2018-08-09T07:05:53.528Z,25.50
2018-08-09T07:08:21.502Z,25.50
2018-08-09T07:10:49.444Z,25.50
2018-08-09T07:13:17.415Z,25.60
2018-08-09T07:15:45.415Z,25.70
2018-08-09T07:18:13.379Z,25.70
2018-08-09T07:20:41.344Z,25.70
2018-08-09T07:23:09.372Z,25.60
2018-08-09T07:25:37.352Z,25.60
2018-08-09T07:28:06.730Z,25.60
2018-08-09T07:30:34.680Z,25.60
2018-08-09T07:33:03.047Z,25.60
2018-08-09T07:35:31.035Z,25.70
2018-08-09T07:37:59.057Z,25.70
2018-08-09T07:40:27.021Z,25.70
2018-08-09T07:42:55.067Z,25.70
2018-08-09T07:45:23.084Z,25.80
2018-08-09T07:47:51.150Z,25.80
2018-08-09T07:50:19.113Z,25.80
2018-08-09T07:52:47.108Z,25.90
2018-08-09T07:55:15.107Z,25.90
2018-08-09T07:57:43.132Z,25.90
2018-08-09T08:00:12.092Z,25.90
2018-08-09T08:02:41.176Z,25.90
2018-08-09T08:05:09.369Z,25.90
2018-08-09T08:07:37.926Z,26.00
2018-08-09T08:10:07.158Z,26.10
2018-08-09T08:12:35.132Z,26.10
2018-08-09T08:15:03.241Z,26.20
2018-08-09T08:17:31.107Z,26.20
2018-08-09T08:19:59.112Z,26.20
2018-08-09T08:22:27.154Z,26.20
2018-08-09T08:24:55.143Z,26.20
2018-08-09T08:27:23.224Z,26.20
2018-08-09T08:29:51.270Z,26.30
2018-08-09T08:32:19.275Z,26.30
2018-08-09T08:34:47.351Z,26.30
2018-08-09T08:37:15.304Z,26.40
2018-08-09T08:39:43.378Z,26.40
2018-08-09T08:42:11.399Z,26.40
2018-08-09T08:44:39.433Z,26.40
2018-08-09T08:47:07.610Z,26.50
2018-08-09T08:49:35.564Z,26.50
2018-08-09T08:52:04.179Z,26.50
2018-08-09T08:54:32.537Z,26.60
2018-08-09T08:57:00.606Z,26.60
2018-08-09T08:59:29.502Z,26.60
2018-08-09T09:01:57.582Z,26.70
2018-08-09T09:04:25.705Z,26.70
2018-08-09T09:06:53.576Z,26.70
2018-08-09T09:09:21.890Z,26.80
2018-08-09T09:11:51.170Z,26.80
2018-08-09T09:14:19.150Z,26.80
2018-08-09T09:16:47.221Z,26.80
2018-08-09T09:19:15.280Z,26.80
2018-08-09T09:21:43.232Z,26.90
2018-08-09T09:24:11.200Z,26.90
2018-08-09T09:26:39.207Z,26.90
2018-08-09T09:29:07.183Z,27.00
2018-08-09T09:31:35.168Z,27.00
2018-08-09T09:34:03.108Z,27.00
2018-08-09T09:36:31.125Z,27.10
2018-08-09T09:38:59.118Z,27.10
2018-08-09T09:41:27.202Z,27.20
2018-08-09T09:43:55.178Z,27.20
2018-08-09T09:46:23.611Z,27.20
2018-08-09T09:48:51.640Z,27.20
2018-08-09T09:51:19.608Z,27.30
2018-08-09T09:53:47.895Z,27.30
2018-08-09T09:56:15.840Z,27.30
2018-08-09T09:58:43.830Z,27.40
2018-08-09T10:01:17.399Z,27.40
2018-08-09T10:03:45.477Z,27.40
2018-08-09T10:06:13.426Z,27.40
2018-08-09T10:08:41.495Z,27.50
2018-08-09T10:11:09.455Z,27.50
2018-08-09T10:13:37.502Z,27.50
2018-08-09T10:16:05.468Z,27.60
2018-08-09T10:18:34.613Z,27.60
2018-08-09T10:21:02.591Z,27.60
2018-08-09T10:23:30.547Z,27.60
2018-08-09T10:25:58.882Z,27.60
2018-08-09T10:28:26.849Z,27.70
2018-08-09T10:30:54.946Z,27.70
2018-08-09T10:33:22.987Z,27.80
2018-08-09T10:35:51.066Z,27.80
2018-08-09T10:38:22.584Z,27.90
2018-08-09T10:40:50.531Z,28.00
2018-08-09T10:43:18.580Z,28.00
2018-08-09T10:45:47.349Z,28.00
2018-08-09T10:48:15.339Z,28.10
2018-08-09T10:50:43.594Z,28.10
2018-08-09T10:53:11.540Z,28.10
2018-08-09T10:55:39.678Z,28.20
2018-08-09T10:58:07.646Z,28.20
2018-08-09T11:00:35.622Z,28.30
2018-08-09T11:03:03.611Z,28.30
2018-08-09T11:05:31.583Z,28.30
2018-08-09T11:07:59.543Z,28.40
2018-08-09T11:10:27.524Z,28.40
2018-08-09T11:12:55.507Z,28.40
2018-08-09T11:15:23.537Z,28.40
2018-08-09T11:17:51.896Z,28.40
2018-08-09T11:20:19.859Z,28.50
2018-08-09T11:22:47.808Z,28.50
2018-08-09T11:25:15.835Z,28.50
2018-08-09T11:27:44.176Z,28.50
2018-08-09T11:30:12.142Z,28.60
2018-08-09T11:32:40.218Z,28.60
2018-08-09T11:35:08.217Z,28.60
2018-08-09T11:37:36.157Z,28.70
2018-08-09T11:40:04.632Z,28.70
2018-08-09T11:42:32.640Z,28.80
2018-08-09T11:45:00.610Z,28.80
2018-08-09T11:47:28.633Z,28.90
2018-08-09T11:49:56.607Z,28.90
2018-08-09T11:52:24.583Z,29.00
2018-08-09T11:54:52.816Z,29.00
2018-08-09T11:57:21.129Z,29.00
2018-08-09T11:59:49.152Z,29.00
2018-08-09T12:02:17.121Z,29.10
2018-08-09T12:04:45.105Z,29.10
2018-08-09T12:07:13.402Z,29.20
2018-08-09T12:09:41.519Z,29.20
2018-08-09T12:12:09.672Z,29.20
2018-08-09T12:14:37.628Z,29.30
2018-08-09T12:17:05.769Z,29.30
2018-08-09T12:19:34.307Z,29.40
2018-08-09T12:22:02.275Z,29.40
2018-08-09T12:24:30.276Z,29.50
2018-08-09T12:26:58.255Z,29.50
2018-08-09T12:29:26.251Z,29.60
2018-08-09T12:31:54.260Z,29.60
2018-08-09T12:34:22.227Z,29.70
2018-08-09T12:36:50.579Z,29.70
2018-08-09T12:39:18.549Z,29.70
2018-08-09T12:41:46.566Z,29.80
2018-08-09T12:44:14.798Z,29.80
2018-08-09T12:46:42.765Z,29.90
2018-08-09T12:49:10.751Z,29.90
2018-08-09T12:51:38.817Z,30.00
2018-08-09T12:54:06.887Z,30.00
2018-08-09T12:56:35.179Z,30.00
2018-08-09T12:59:03.127Z,30.10
2018-08-09T13:01:31.146Z,30.10
2018-08-09T13:03:59.167Z,30.10
2018-08-09T13:06:27.155Z,30.10
2018-08-09T13:08:55.931Z,30.20
2018-08-09T13:11:23.945Z,30.20
2018-08-09T13:13:51.897Z,30.20
2018-08-09T13:16:19.902Z,30.30
2018-08-09T13:18:47.856Z,30.30
2018-08-09T13:21:16.466Z,30.40
2018-08-09T13:23:44.575Z,30.50
2018-08-09T13:26:12.606Z,30.50
2018-08-09T13:28:40.662Z,30.50
2018-08-09T13:31:08.731Z,30.60
2018-08-09T13:33:37.186Z,30.60
2018-08-09T13:36:05.251Z,30.60
2018-08-09T13:38:33.204Z,30.70
2018-08-09T13:41:01.275Z,30.70
2018-08-09T13:43:29.278Z,30.70
2018-08-09T13:45:57.270Z,30.70
2018-08-09T13:48:25.285Z,30.80
2018-08-09T13:50:53.329Z,30.80
2018-08-09T13:53:21.402Z,30.80
2018-08-09T13:55:50.544Z,30.80
2018-08-09T13:58:19.928Z,30.90
2018-08-09T14:00:48.252Z,30.90
2018-08-09T14:03:16.231Z,30.90
2018-08-09T14:05:44.811Z,31.00
2018-08-09T14:08:12.808Z,31.00
2018-08-09T14:10:40.839Z,31.10
2018-08-09T14:13:08.803Z,31.10
2018-08-09T14:15:36.788Z,31.10
2018-08-09T14:18:04.936Z,31.10
2018-08-09T14:20:32.900Z,31.10
2018-08-09T14:23:00.971Z,31.10
2018-08-09T14:25:29.027Z,31.10
2018-08-09T14:27:56.981Z,31.20
2018-08-09T14:30:25.149Z,31.20
2018-08-09T14:32:53.142Z,31.20
2018-08-09T14:35:21.087Z,31.40
2018-08-09T14:37:49.354Z,31.40
2018-08-09T14:40:17.323Z,31.40
2018-08-09T14:42:45.848Z,31.40
2018-08-09T14:45:15.230Z,31.40
2018-08-09T14:47:43.395Z,31.50
2018-08-09T14:50:11.463Z,31.50
2018-08-09T14:52:39.468Z,31.50
2018-08-09T14:55:09.386Z,31.50
2018-08-09T14:57:37.369Z,31.60
2018-08-09T15:00:10.854Z,31.60
2018-08-09T15:02:38.797Z,31.50
2018-08-09T15:05:06.792Z,31.60
2018-08-09T15:07:34.774Z,31.60
2018-08-09T15:10:02.727Z,31.60
2018-08-09T15:12:30.684Z,31.70
2018-08-09T15:14:58.683Z,31.60
2018-08-09T15:17:26.677Z,31.70
2018-08-09T15:19:54.637Z,31.70
2018-08-09T15:22:22.691Z,31.70
2018-08-09T15:24:50.664Z,31.70
2018-08-09T15:27:18.669Z,31.70
2018-08-09T15:29:47.149Z,31.80
2018-08-09T15:32:16.103Z,31.80
2018-08-09T15:34:44.056Z,31.80
2018-08-09T15:37:12.033Z,31.80
2018-08-09T15:39:39.971Z,31.80
2018-08-09T15:42:08.348Z,31.80
2018-08-09T15:44:36.298Z,31.80
2018-08-09T15:47:04.309Z,31.90
2018-08-09T15:49:32.354Z,31.90
2018-08-09T15:52:00.434Z,31.90
2018-08-09T15:54:28.514Z,31.90
2018-08-09T15:56:56.470Z,31.90
2018-08-09T15:59:25.475Z,32.00
2018-08-09T16:01:53.516Z,32.00
2018-08-09T16:04:21.524Z,32.00
2018-08-09T16:06:49.517Z,32.00
2018-08-09T16:09:18.011Z,32.00
2018-08-09T16:11:46.308Z,32.00
2018-08-09T16:14:14.349Z,32.10
2018-08-09T16:16:42.303Z,32.10
2018-08-09T16:19:10.543Z,32.10
2018-08-09T16:21:38.496Z,32.20
2018-08-09T16:24:06.738Z,32.20
2018-08-09T16:26:34.806Z,32.20
2018-08-09T16:29:02.908Z,32.20
2018-08-09T16:31:31.164Z,32.30
2018-08-09T16:33:59.156Z,32.30
2018-08-09T16:36:27.191Z,32.30
2018-08-09T16:38:55.180Z,32.30
2018-08-09T16:41:23.128Z,32.30
2018-08-09T16:43:51.423Z,32.40
2018-08-09T16:46:19.482Z,32.40
2018-08-09T16:48:47.409Z,32.40
2018-08-09T16:51:15.383Z,32.40
2018-08-09T16:53:43.461Z,32.40
2018-08-09T16:56:11.524Z,32.40
2018-08-09T16:58:39.484Z,32.50
2018-08-09T17:01:07.519Z,32.50
2018-08-09T17:03:35.549Z,32.50
2018-08-09T17:06:03.583Z,32.50
2018-08-09T17:08:31.826Z,32.50
2018-08-09T17:10:59.800Z,32.60
2018-08-09T17:13:27.823Z,32.60
2018-08-09T17:15:56.605Z,32.70
2018-08-09T17:18:24.581Z,32.60
2018-08-09T17:20:52.545Z,32.60
2018-08-09T17:23:20.575Z,32.70
2018-08-09T17:25:48.536Z,32.50
2018-08-09T17:28:16.523Z,32.50
2018-08-09T17:30:44.494Z,32.40
2018-08-09T17:33:12.512Z,32.40
2018-08-09T17:35:41.410Z,32.40
2018-08-09T17:38:09.407Z,32.50
2018-08-09T17:40:37.451Z,32.50
2018-08-09T17:43:05.754Z,32.50
2018-08-09T17:45:34.779Z,32.40
2018-08-09T17:48:03.195Z,32.30
2018-08-09T17:50:31.225Z,32.20
2018-08-09T17:53:01.141Z,32.10
2018-08-09T17:55:29.469Z,32.10
2018-08-09T17:57:57.470Z,32.00
2018-08-09T18:00:28.700Z,32.00
2018-08-09T18:02:56.685Z,31.90
2018-08-09T18:05:24.638Z,31.90
2018-08-09T18:07:53.362Z,31.80
2018-08-09T18:10:26.219Z,31.80
2018-08-09T18:12:54.405Z,31.80
2018-08-09T18:15:23.495Z,31.70
2018-08-09T18:17:51.843Z,31.70
2018-08-09T18:20:21.383Z,31.70
2018-08-09T18:22:49.412Z,31.70
2018-08-09T18:25:17.498Z,31.60
2018-08-09T18:27:45.442Z,31.60
2018-08-09T18:30:15.400Z,31.60
2018-08-09T18:32:43.527Z,31.50
2018-08-09T18:35:12.867Z,31.50
2018-08-09T18:37:40.916Z,31.50
2018-08-09T18:40:11.708Z,31.50
2018-08-09T18:42:39.967Z,31.30
2018-08-09T18:45:09.079Z,31.30
2018-08-09T18:47:37.645Z,31.30
2018-08-09T18:50:08.632Z,31.20
2018-08-09T18:52:36.637Z,31.20
2018-08-09T18:55:05.177Z,31.20
2018-08-09T18:57:33.209Z,31.20
2018-08-09T19:00:01.176Z,31.20
2018-08-09T19:02:29.672Z,31.20
2018-08-09T19:04:57.652Z,31.20
2018-08-09T19:07:25.659Z,31.10
2018-08-09T19:09:53.890Z,31.10
2018-08-09T19:12:21.891Z,31.00
2018-08-09T19:14:49.874Z,31.00
2018-08-09T19:17:17.844Z,31.00
2018-08-09T19:19:45.856Z,31.00
2018-08-09T19:22:13.822Z,31.00
2018-08-09T19:24:41.773Z,30.90
2018-08-09T19:27:09.889Z,30.90
2018-08-09T19:29:37.948Z,30.80
2018-08-09T19:32:05.938Z,30.90
2018-08-09T19:34:34.302Z,30.90
2018-08-09T19:37:02.339Z,30.90
2018-08-09T19:39:30.298Z,30.80
2018-08-09T19:41:58.526Z,30.80
2018-08-09T19:44:26.485Z,30.80
2018-08-09T19:46:54.513Z,30.70
2018-08-09T19:49:22.586Z,30.70
2018-08-09T19:51:50.597Z,30.70
2018-08-09T19:54:18.580Z,30.60
2018-08-09T19:56:46.620Z,30.60
2018-08-09T19:59:14.686Z,30.60
2018-08-09T20:01:47.508Z,30.50
2018-08-09T20:04:15.679Z,30.10
2018-08-09T20:06:43.712Z,29.80
2018-08-09T20:09:11.843Z,29.60
2018-08-09T20:11:39.908Z,29.30
2018-08-09T20:14:07.998Z,28.80
2018-08-09T20:16:35.998Z,28.60
2018-08-09T20:19:04.063Z,28.20
2018-08-09T20:21:32.532Z,28.00
2018-08-09T20:24:00.505Z,27.90
2018-08-09T20:26:28.508Z,27.80
2018-08-09T20:28:56.499Z,27.80
2018-08-09T20:31:24.535Z,27.60
2018-08-09T20:33:52.531Z,27.50
2018-08-09T20:36:20.551Z,27.50
2018-08-09T20:38:48.534Z,27.40
2018-08-09T20:41:16.715Z,27.30
2018-08-09T20:43:44.668Z,27.30
2018-08-09T20:46:12.699Z,27.30
2018-08-09T20:48:40.830Z,27.40
2018-08-09T20:51:08.800Z,27.60
2018-08-09T20:53:36.988Z,27.50
2018-08-09T20:56:05.229Z,27.50
2018-08-09T20:58:33.245Z,27.80
2018-08-09T21:01:01.226Z,28.10
2018-08-09T21:03:29.511Z,28.30
2018-08-09T21:05:58.620Z,28.30
2018-08-09T21:08:26.632Z,28.30
2018-08-09T21:10:55.555Z,28.30
2018-08-09T21:13:23.667Z,27.90
2018-08-09T21:15:51.628Z,27.30
2018-08-09T21:18:19.627Z,27.10
2018-08-09T21:20:47.724Z,27.40
2018-08-09T21:23:16.447Z,27.80
2018-08-09T21:25:44.457Z,27.70
2018-08-09T21:28:14.437Z,27.70
2018-08-09T21:30:42.571Z,27.80
2018-08-09T21:33:10.575Z,27.90
2018-08-09T21:35:39.164Z,28.10
2018-08-09T21:38:07.126Z,28.20
2018-08-09T21:40:35.086Z,27.70
2018-08-09T21:43:03.052Z,27.10
2018-08-09T21:45:31.043Z,26.70
2018-08-09T21:47:59.052Z,26.90
2018-08-09T21:50:27.003Z,26.80
2018-08-09T21:52:54.958Z,26.50
2018-08-09T21:55:22.922Z,26.20
2018-08-09T21:57:50.911Z,26.00
2018-08-09T22:00:36.296Z,25.90
2018-08-09T22:03:04.624Z,25.80
2018-08-09T22:05:38.137Z,25.70
2018-08-09T22:08:11.615Z,25.90
2018-08-09T22:10:45.063Z,26.20
2018-08-09T22:13:18.594Z,26.40
2018-08-09T22:15:51.923Z,26.70
2018-08-09T22:18:25.320Z,26.40
2018-08-09T22:20:58.760Z,26.40
2018-08-09T22:23:26.721Z,26.40
2018-08-09T22:25:54.707Z,26.30
2018-08-09T22:28:22.709Z,26.10
2018-08-09T22:30:50.687Z,26.00
2018-08-09T22:33:18.656Z,26.20
2018-08-09T22:35:46.641Z,26.10
2018-08-09T22:38:14.627Z,26.00
2018-08-09T22:40:42.644Z,26.20
2018-08-09T22:43:10.863Z,26.10
2018-08-09T22:45:38.831Z,26.00
2018-08-09T22:48:07.351Z,26.10
2018-08-09T22:50:39.276Z,26.10
2018-08-09T22:53:07.319Z,26.20
2018-08-09T22:55:35.806Z,26.30
2018-08-09T22:58:03.883Z,26.40
2018-08-09T23:00:32.111Z,26.40
2018-08-09T23:03:00.120Z,26.40
2018-08-09T23:05:28.106Z,26.50
2018-08-09T23:07:56.058Z,26.50
2018-08-09T23:10:24.035Z,26.40
2018-08-09T23:12:52.341Z,26.50
2018-08-09T23:15:20.955Z,26.50
2018-08-09T23:17:48.967Z,26.50
2018-08-09T23:20:17.002Z,26.50
2018-08-09T23:22:45.287Z,26.40
2018-08-09T23:25:13.931Z,26.20
2018-08-09T23:27:42.695Z,26.30
2018-08-09T23:30:11.500Z,26.20
2018-08-09T23:32:39.475Z,26.20
2018-08-09T23:35:09.492Z,26.10
2018-08-09T23:37:37.439Z,26.10
2018-08-09T23:40:06.648Z,25.90
2018-08-09T23:42:35.969Z,25.90
2018-08-09T23:45:04.408Z,25.90
2018-08-09T23:47:32.347Z,25.80
2018-08-09T23:50:00.570Z,25.60
2018-08-09T23:52:28.515Z,25.50
2018-08-09T23:54:56.466Z,25.50
2018-08-09T23:57:24.482Z,25.50
2018-08-09T23:59:52.444Z,25.40
